Time;durP1;ratioP1;P1;durP2;ratioP2;P2;SDS_P1;SDS_P2;PMS_P1;PMS_P2;Temp;Humidity;BMP_temperature;BMP_pressure;BME280_temperature;BME280_humidity;BME280_pressure;Samples;Min_cycle;Max_cycle;Signal;HPM_P1;HPM_P2
2021/12/14 00:01:08;;;;;;;2.15;1.00;;;8.60;99.90;;;;;;6716348;88;20179;-75
2021/12/14 00:11:25;;;;;;;3.17;1.30;;;8.40;99.90;;;;;;6704986;88;20232;-76
2021/12/14 00:21:30;;;;;;;3.45;1.42;;;8.40;99.90;;;;;;6698494;88;20190;-75
2021/12/14 00:31:30;;;;;;;2.65;1.40;;;8.50;99.90;;;;;;6698831;88;20282;-75
2021/12/14 00:41:34;;;;;;;3.90;1.50;;;8.50;99.90;;;;;;6698236;88;20210;-75
2021/12/14 00:51:35;;;;;;;3.37;1.75;;;8.40;99.90;;;;;;6696801;88;21025;-75
2021/12/14 01:01:58;;;;;;;4.20;1.80;;;8.40;99.90;;;;;;6697906;88;20234;-75
2021/12/14 01:12:06;;;;;;;4.95;1.73;;;8.50;99.90;;;;;;6698559;88;20537;-75
2021/12/14 01:22:24;;;;;;;6.28;2.10;;;8.50;99.90;;;;;;6698539;88;20204;-75
2021/12/14 01:32:28;;;;;;;4.00;2.10;;;8.30;99.90;;;;;;6697203;88;20205;-75
2021/12/14 01:42:37;;;;;;;4.75;2.40;;;8.30;99.90;;;;;;6698910;88;20198;-75
2021/12/14 01:52:38;;;;;;;5.57;2.90;;;8.30;99.90;;;;;;6698633;88;20187;-74
2021/12/14 02:02:42;;;;;;;5.93;3.12;;;8.30;99.90;;;;;;6701617;88;20192;-74
2021/12/14 02:12:44;;;;;;;6.03;3.22;;;8.20;99.90;;;;;;6696713;88;20391;-74
2021/12/14 02:22:45;;;;;;;5.62;2.90;;;8.20;99.90;;;;;;6697619;88;20219;-75
2021/12/14 02:32:45;;;;;;;5.30;2.73;;;8.30;99.90;;;;;;6696365;88;21024;-74
2021/12/14 02:42:49;;;;;;;7.87;3.55;;;8.30;99.90;;;;;;6698223;88;20503;-74
2021/12/14 02:52:50;;;;;;;7.22;3.25;;;8.40;99.90;;;;;;6698859;88;20662;-74
2021/12/14 03:02:52;;;;;;;7.90;3.92;;;8.40;99.90;;;;;;6702202;88;20267;-74
2021/12/14 03:12:54;;;;;;;8.65;4.18;;;8.30;99.90;;;;;;6700967;88;20340;-76
2021/12/14 03:23:08;;;;;;;7.57;3.90;;;8.50;99.90;;;;;;6700802;88;21093;-74
2021/12/14 03:33:18;;;;;;;8.50;4.05;;;8.50;99.90;;;;;;6700949;88;20190;-74
2021/12/14 03:43:18;;;;;;;8.63;4.18;;;8.50;99.90;;;;;;6698889;88;20679;-75
2021/12/14 03:53:21;;;;;;;9.53;4.73;;;8.50;99.90;;;;;;6701044;88;20441;-74
2021/12/14 04:03:24;;;;;;;10.82;5.07;;;8.40;99.90;;;;;;6712566;88;20573;-75
2021/12/14 04:13:32;;;;;;;13.60;5.72;;;8.40;99.90;;;;;;6702075;88;20201;-74
2021/12/14 04:23:37;;;;;;;12.50;5.53;;;8.60;99.90;;;;;;6697702;88;20216;-74
2021/12/14 04:33:41;;;;;;;12.40;5.87;;;8.50;99.90;;;;;;6698730;88;20221;-74
2021/12/14 04:54:07;;;;;;;13.18;6.03;;;8.30;99.90;;;;;;6698310;88;20183;-74
2021/12/14 05:04:15;;;;;;;11.95;5.55;;;8.20;99.90;;;;;;6698721;88;20214;-74
2021/12/14 05:14:16;;;;;;;11.73;5.55;;;8.30;99.90;;;;;;6704188;88;20249;-74
2021/12/14 05:24:21;;;;;;;15.13;6.20;;;8.20;99.90;;;;;;6696776;88;20204;-74
2021/12/14 05:34:24;;;;;;;14.23;6.10;;;8.20;99.90;;;;;;6697291;88;20797;-74
2021/12/14 05:44:25;;;;;;;15.65;6.57;;;8.20;99.90;;;;;;6697118;88;20186;-74
2021/12/14 05:54:30;;;;;;;14.90;6.28;;;8.20;99.90;;;;;;6696307;88;20708;-74
2021/12/14 06:04:41;;;;;;;13.02;6.30;;;8.20;99.90;;;;;;6693652;88;20252;-74
2021/12/14 06:14:51;;;;;;;13.65;6.30;;;8.10;99.90;;;;;;6696153;88;20242;-74
2021/12/14 06:24:58;;;;;;;12.82;6.18;;;8.10;99.90;;;;;;6699419;88;20226;-75
2021/12/14 06:35:06;;;;;;;14.73;6.60;;;8.00;99.90;;;;;;6690802;88;20338;-74
2021/12/14 06:45:16;;;;;;;12.68;5.90;;;8.00;99.90;;;;;;6695207;88;20191;-74
2021/12/14 06:55:22;;;;;;;11.50;5.10;;;8.00;99.90;;;;;;6696563;88;20278;-73
2021/12/14 07:05:25;;;;;;;11.20;5.10;;;7.90;99.90;;;;;;6691662;88;20609;-75
2021/12/14 07:15:35;;;;;;;9.70;4.20;;;7.90;99.90;;;;;;6695992;88;20241;-75
2021/12/14 07:25:40;;;;;;;11.38;4.10;;;7.90;99.90;;;;;;6694803;88;20587;-75
2021/12/14 07:35:57;;;;;;;7.97;4.10;;;7.90;99.90;;;;;;6692379;88;20387;-74
2021/12/14 07:45:59;;;;;;;9.93;4.28;;;7.90;99.90;;;;;;6694319;88;20275;-74
2021/12/14 07:56:00;;;;;;;11.50;5.25;;;7.70;99.90;;;;;;6695155;88;20214;-74
2021/12/14 08:06:06;;;;;;;11.88;4.40;;;7.70;99.90;;;;;;6716615;88;20339;-75
2021/12/14 08:16:07;;;;;;;13.35;4.68;;;7.50;99.90;;;;;;6698616;88;20221;-75
2021/12/14 08:26:09;;;;;;;11.40;4.55;;;7.50;99.90;;;;;;6705861;88;20208;-75
2021/12/14 08:36:13;;;;;;;10.40;4.20;;;7.50;99.90;;;;;;6699412;88;20198;-75
2021/12/14 08:46:18;;;;;;;6.75;3.85;;;7.60;99.90;;;;;;6697636;88;20203;-74
2021/12/14 08:56:20;;;;;;;8.00;3.90;;;7.80;99.90;;;;;;6697205;88;20195;-74
2021/12/14 09:06:24;;;;;;;7.93;3.22;;;7.90;99.90;;;;;;6699743;88;20187;-74
2021/12/14 09:16:28;;;;;;;8.25;2.90;;;8.00;99.90;;;;;;6697402;88;20269;-74
2021/12/14 09:26:35;;;;;;;5.75;3.08;;;8.20;99.90;;;;;;6697287;88;20636;-75
2021/12/14 09:36:37;;;;;;;6.45;3.50;;;8.10;99.90;;;;;;6697075;88;20207;-74
2021/12/14 09:46:38;;;;;;;7.07;3.42;;;8.20;99.90;;;;;;6696991;88;20264;-74
2021/12/14 09:56:47;;;;;;;7.45;3.72;;;8.10;99.90;;;;;;6701979;88;20515;-75
2021/12/14 10:06:49;;;;;;;10.73;4.40;;;8.30;99.90;;;;;;6700872;88;20208;-75
2021/12/14 10:16:50;;;;;;;9.48;4.37;;;8.30;99.90;;;;;;6700905;88;20249;-74
2021/12/14 10:26:55;;;;;;;9.25;4.62;;;8.60;99.90;;;;;;6700922;88;20710;-75
2021/12/14 10:37:09;;;;;;;8.88;4.12;;;8.60;99.90;;;;;;6695607;88;20197;-75
2021/12/14 10:47:12;;;;;;;10.10;4.62;;;8.80;99.90;;;;;;6700837;88;20704;-76
2021/12/14 10:57:16;;;;;;;9.15;4.80;;;8.80;99.90;;;;;;6698432;88;20198;-75
2021/12/14 11:07:29;;;;;;;9.68;4.60;;;8.90;99.90;;;;;;6695972;88;20206;-75
2021/12/14 11:28:16;;;;;;;9.05;4.97;;;8.90;99.90;;;;;;6699640;88;20179;-74
2021/12/14 11:38:41;;;;;;;9.68;4.85;;;8.80;99.90;;;;;;6696660;88;20203;-74
2021/12/14 11:48:41;;;;;;;9.43;4.93;;;8.80;99.90;;;;;;6699481;88;20182;-75
2021/12/14 11:58:44;;;;;;;7.80;4.43;;;8.80;99.90;;;;;;6700464;88;20751;-74
2021/12/14 12:19:13;;;;;;;9.45;4.78;;;9.10;99.90;;;;;;6698747;88;20249;-75
2021/12/14 12:29:16;;;;;;;11.80;5.45;;;9.10;99.90;;;;;;6698030;88;20310;-76
2021/12/14 12:39:21;;;;;;;10.07;4.75;;;9.10;99.90;;;;;;6698493;88;20213;-76
2021/12/14 12:49:28;;;;;;;12.00;5.32;;;9.20;99.90;;;;;;6698036;88;20212;-75
2021/12/14 12:59:54;;;;;;;8.82;4.45;;;9.20;99.90;;;;;;6698099;88;20245;-75
2021/12/14 13:10:23;;;;;;;8.98;4.53;;;9.10;99.90;;;;;;6696401;88;20194;-75
2021/12/14 13:20:30;;;;;;;9.60;4.50;;;9.10;99.90;;;;;;6698116;88;20770;-75
2021/12/14 13:30:31;;;;;;;8.63;4.32;;;9.20;99.90;;;;;;6697565;88;20874;-75
2021/12/14 13:40:33;;;;;;;9.38;4.65;;;9.20;99.90;;;;;;6698226;88;20210;-75
2021/12/14 13:50:37;;;;;;;9.73;4.90;;;9.40;99.90;;;;;;6698093;88;20200;-75
2021/12/14 14:00:42;;;;;;;9.68;5.30;;;9.60;99.90;;;;;;6698398;88;20194;-76
2021/12/14 14:10:47;;;;;;;7.50;3.97;;;9.60;99.90;;;;;;6697851;88;20218;-75
2021/12/14 14:20:52;;;;;;;8.67;4.67;;;9.40;99.90;;;;;;6698643;88;20214;-76
2021/12/14 14:30:54;;;;;;;9.25;5.05;;;9.30;99.90;;;;;;6708846;88;20229;-76
2021/12/14 14:40:57;;;;;;;9.95;4.80;;;9.40;99.90;;;;;;6699577;88;20209;-76
2021/12/14 14:50:57;;;;;;;11.88;5.75;;;9.50;99.90;;;;;;6697480;88;20214;-76
2021/12/14 15:01:10;;;;;;;10.60;4.43;;;9.40;99.90;;;;;;6701159;88;20197;-76
2021/12/14 15:11:11;;;;;;;10.73;5.28;;;9.30;99.90;;;;;;6699613;88;20179;-76
2021/12/14 15:21:29;;;;;;;8.63;4.43;;;9.30;99.90;;;;;;6698589;88;20759;-75
2021/12/14 15:31:30;;;;;;;10.73;5.05;;;9.30;99.90;;;;;;6700284;88;20170;-75
2021/12/14 15:41:33;;;;;;;10.02;5.07;;;9.30;99.90;;;;;;6699415;88;20253;-76
2021/12/14 15:51:43;;;;;;;9.55;5.07;;;9.20;99.90;;;;;;6699838;88;20677;-76
2021/12/14 16:02:00;;;;;;;12.45;5.72;;;9.20;99.90;;;;;;6700882;88;20209;-76
2021/12/14 16:15:06;;;;;;;12.43;5.55;;;8.90;99.90;;;;;;6702021;88;20285;-75
2021/12/14 16:22:32;;;;;;;12.93;6.60;;;8.80;99.90;;;;;;6706087;77;20957;-75
2021/12/14 16:32:32;;;;;;;14.23;6.37;;;8.80;99.90;;;;;;6704336;88;20190;-76
2021/12/14 16:42:33;;;;;;;14.80;5.85;;;8.80;99.90;;;;;;6700387;88;20309;-76
2021/12/14 16:52:35;;;;;;;10.68;5.47;;;8.70;99.90;;;;;;6685466;88;20214;-76
2021/12/14 17:02:37;;;;;;;13.35;5.72;;;8.80;99.90;;;;;;6690117;88;20293;-76
2021/12/14 17:12:38;;;;;;;12.55;6.00;;;8.80;99.90;;;;;;6699079;88;20190;-74
2021/12/14 17:22:40;;;;;;;11.52;5.62;;;8.80;99.90;;;;;;6707160;88;20243;-75
2021/12/14 17:32:42;;;;;;;22.85;8.75;;;8.70;99.90;;;;;;6698705;88;20829;-76
2021/12/14 17:42:46;;;;;;;75.28;34.20;;;8.80;99.90;;;;;;6692277;88;20930;-75
2021/12/14 17:52:56;;;;;;;69.00;37.17;;;8.70;99.90;;;;;;6693146;88;20190;-74
2021/12/14 18:03:08;;;;;;;28.75;16.05;;;8.70;99.90;;;;;;6703974;88;20194;-77
2021/12/14 18:13:13;;;;;;;19.35;10.13;;;8.70;99.90;;;;;;6701773;88;20186;-75
2021/12/14 18:23:17;;;;;;;12.43;6.78;;;8.70;99.90;;;;;;6705295;88;20780;-76
2021/12/14 18:33:17;;;;;;;15.60;7.50;;;8.70;99.90;;;;;;6692756;88;20245;-76
2021/12/14 18:43:35;;;;;;;12.48;7.12;;;8.70;99.90;;;;;;6695349;88;20317;-77
2021/12/14 18:53:37;;;;;;;11.85;6.82;;;8.70;99.90;;;;;;6698512;88;20197;-76
2021/12/14 19:03:44;;;;;;;16.95;8.38;;;8.80;99.90;;;;;;6692401;88;20370;-77
2021/12/14 19:13:51;;;;;;;11.80;5.82;;;8.70;99.90;;;;;;6684960;88;20179;-76
2021/12/14 19:24:09;;;;;;;11.35;5.07;;;8.80;99.90;;;;;;6683729;88;20207;-76
2021/12/14 19:34:10;;;;;;;13.00;6.05;;;8.80;99.90;;;;;;6682355;88;20191;-77
2021/12/14 19:44:15;;;;;;;14.65;6.32;;;8.90;99.90;;;;;;6684097;88;20220;-78
2021/12/14 19:54:28;;;;;;;15.30;6.70;;;8.90;99.90;;;;;;6695523;88;20186;-77
2021/12/14 20:04:33;;;;;;;10.65;6.28;;;8.80;99.90;;;;;;6687959;88;20714;-77
2021/12/14 20:14:49;;;;;;;14.50;6.97;;;8.80;99.90;;;;;;6688411;88;20226;-78
2021/12/14 20:24:55;;;;;;;18.50;7.53;;;8.80;99.90;;;;;;6685685;88;20730;-78
2021/12/14 20:35:22;;;;;;;18.23;7.43;;;8.70;99.90;;;;;;6688594;88;20340;-77
2021/12/14 20:45:52;;;;;;;28.13;11.63;;;8.60;99.90;;;;;;6685347;88;20170;-78
2021/12/14 20:56:04;;;;;;;17.87;9.23;;;8.60;99.90;;;;;;6685481;88;20392;-78
2021/12/14 21:06:19;;;;;;;20.27;9.43;;;8.50;99.90;;;;;;6684619;88;20733;-78
2021/12/14 21:16:28;;;;;;;21.87;9.68;;;8.50;99.90;;;;;;6686159;88;20211;-78
2021/12/14 21:26:30;;;;;;;17.85;9.32;;;8.40;99.90;;;;;;6685550;88;20214;-78
2021/12/14 21:36:32;;;;;;;22.08;10.02;;;8.50;99.90;;;;;;6685577;88;20235;-78
2021/12/14 21:46:54;;;;;;;23.45;11.38;;;8.50;99.90;;;;;;6686496;88;20341;-78
2021/12/14 21:56:56;;;;;;;23.77;12.70;;;8.50;99.90;;;;;;6690378;88;20203;-78
2021/12/14 22:06:57;;;;;;;19.58;9.98;;;8.50;99.90;;;;;;6689765;88;20191;-78
2021/12/14 22:17:08;;;;;;;20.98;9.80;;;8.50;99.90;;;;;;6688058;88;20606;-79
2021/12/14 22:27:09;;;;;;;19.40;10.07;;;8.60;99.90;;;;;;6705697;88;20230;-79
2021/12/14 22:37:11;;;;;;;17.95;8.90;;;8.60;99.90;;;;;;6705665;88;20185;-78
2021/12/14 22:47:16;;;;;;;25.17;10.35;;;8.70;99.90;;;;;;6715560;77;20170;-75
2021/12/14 22:57:17;;;;;;;20.75;9.68;;;8.60;99.90;;;;;;6710402;88;20217;-72
2021/12/14 23:07:18;;;;;;;22.77;10.00;;;8.60;99.90;;;;;;6711618;88;20240;-74
2021/12/14 23:17:20;;;;;;;20.42;9.07;;;8.70;99.90;;;;;;6710345;88;20749;-75
2021/12/14 23:27:21;;;;;;;16.70;8.65;;;8.70;99.90;;;;;;6702499;88;20191;-72
2021/12/14 23:37:22;;;;;;;20.75;8.80;;;8.60;99.90;;;;;;6705949;88;20219;-72
2021/12/14 23:47:23;;;;;;;19.12;7.65;;;8.70;99.90;;;;;;6707917;88;20221;-72
2021/12/14 23:57:24;;;;;;;18.97;8.47;;;8.80;99.90;;;;;;6711381;88;20201;-74
